Poseidon — DBKV — position and weather

sailwx.info

Track history (hours):
 
Tides and Currents Weather Stations Pressure Air Temp Water Temp Dewpoint Dewpoint Depression Visibility Wind Speed Wind Dir Waves Ship Positions

Oceanographic research ship Poseidon (Germany)

Detailed information on ship capabilities available from University of Delaware's Ocean Information Center.

Last reported at 2019-Jan-24 05:00 UTC. Time now 2019-Jan-24 06:11 UTC.
Position N 20°48' W 017°12'.

Length 60 m; beam 11.4 m; draft 4.1 m.

Type: Ship. MMSI: 211204360.

Wind from 050 at 19 knots

Barometer 1016.1 mb
Air temperature 16.0 ° C
Water temperature 16.8 ° C

Date/timePositionNaut miles runAvg speedWind from/ knotsBaromVisibWave heightAir tempDewpointWater temp
2019-Jan-24 05:00N 20°48' W 017°12'0 0.0 050 / 191016.1 16.0 16.8
2019-Jan-24 04:00N 20°48' W 017°12'0 0.0 040 / 171016.0 15.9 16.8
2019-Jan-24 03:00N 20°48' W 017°12'0 0.0 030 / 191016.1 16.0 17.1
2019-Jan-24 02:00N 20°48' W 017°12'0 0.0 020 / 141016.5 16.7 16.9
2019-Jan-24 01:00N 20°48' W 017°12'0 0.0 1017.0 16.9 16.9
2019-Jan-24 00:00N 20°48' W 017°12'0 0.0 360 / 141017.2 16.9 16.7
2019-Jan-23 23:00N 20°48' W 017°12'0 0.0 1017.5 17.0 16.7
2019-Jan-23 22:00N 20°48' W 017°12'0 0.0 010 / 151017.4 17.0 16.8
2019-Jan-23 21:00N 20°48' W 017°12'0 0.0 010 / 161017.2 16.9 16.9
2019-Jan-23 20:00N 20°48' W 017°12'0 0.0 360 / 151016.8 16.9 16.9
2019-Jan-23 19:00N 20°48' W 017°12'0 0.0 360 / 161016.7 16.9 17.1
2019-Jan-23 18:00N 20°48' W 017°12'0 0.0 350 / 141016.9 17.0 17.1
2019-Jan-23 17:00N 20°48' W 017°12'0 0.0 340 / 141016.9 17.4 17.2
2019-Jan-23 16:00N 20°48' W 017°12'6 5.6 340 / 131017.2 17.2 17.1
2019-Jan-23 15:00N 20°48' W 017°18'17 8.4 350 / 141017.8 16.5 16.8
2019-Jan-23 13:00N 20°48' W 017°36'6 5.6 040 / 141019.9 15.9 17.9
2019-Jan-23 12:00N 20°48' W 017°42'1111.2 040 / 201020.5 16.2 18.4
2019-Jan-23 11:00N 20°48' W 017°54'8 8.2 040 / 221021.2 16.7 18.1
2019-Jan-23 10:00N 20°54' W 018°00'6 5.6 050 / 241020.8 16.9 18.2
2019-Jan-23 09:00N 20°54' W 018°06'1111.2 040 / 271020.2 17.2 18.2
2019-Jan-23 08:00N 20°54' W 018°18'6 5.6 040 / 271019.8 17.2 18.0
2019-Jan-23 07:00N 20°54' W 018°24'6 5.6 040 / 281019.3 17.2 17.6
2019-Jan-23 06:00N 20°54' W 018°30'6 5.6 040 / 271019.5 17.4 18.4
2019-Jan-23 05:00N 20°54' W 018°36'1111.2 040 / 271019.6 17.9 18.4
2019-Jan-23 04:00N 20°54' W 018°48'6 5.6 040 / 261019.4 17.9 18.4
2019-Jan-23 03:00N 20°54' W 018°54'6 5.6 040 / 261019.7 17.9 18.2
2019-Jan-23 02:00N 20°54' W 019°00'8 8.2 040 / 261020.1 17.9 18.6
2019-Jan-23 01:00N 21°00' W 019°06'1111.2 030 / 251020.2 17.7 19.0
2019-Jan-23 00:00N 21°00' W 019°18'6 5.6 040 / 261020.5 17.7 19.4
2019-Jan-22 23:00N 21°00' W 019°24'6 5.6 040 / 291020.1 17.9 19.2
2019-Jan-22 22:00N 21°00' W 019°30'6 5.6 030 / 311019.5 17.7 19.3
2019-Jan-22 21:00N 21°00' W 019°36'1111.2 040 / 311019.6 17.9 20.2
2019-Jan-22 20:00N 21°00' W 019°48'6 5.6 050 / 281020.5 17.7 20.2
2019-Jan-22 19:00N 21°00' W 019°54'6 5.6 060 / 241020.2 17.9 20.3
2019-Jan-22 18:00N 21°00' W 020°00'6 5.6 080 / 211020.3 17.7 20.3
2019-Jan-22 17:00N 21°00' W 020°06'8 8.2 1019.9 17.9 20.4
2019-Jan-22 16:00N 21°06' W 020°12'6 5.6 080 / 221020.1 18.2 20.7
2019-Jan-22 15:00N 21°06' W 020°18'17 8.4 080 / 231020.7 18.2 20.7
2019-Jan-22 13:00N 21°06' W 020°36'6 5.6 080 / 231022.3 18.7 20.6
2019-Jan-22 12:00N 21°06' W 020°42'6 5.6 080 / 241022.8 19.0 20.7
2019-Jan-22 11:00N 21°06' W 020°48'6 5.6 070 / 281022.8 19.2 20.7
2019-Jan-22 10:00N 21°06' W 020°54'0 0.0 070 / 261022.6 19.2 20.8
2019-Jan-22 09:00N 21°06' W 020°54'6 6.0 080 / 231022.2 19.0 20.8
2019-Jan-22 08:00N 21°12' W 020°54'0 0.0 080 / 201021.8 19.0 20.9
2019-Jan-22 07:00N 21°12' W 020°54'0 0.0 080 / 181021.3 19.2 20.9
2019-Jan-22 06:00N 21°12' W 020°54'0 0.0 070 / 201020.9 19.5 20.9
2019-Jan-22 05:00N 21°12' W 020°54'0 0.0 060 / 191021.0 19.0 20.9
2019-Jan-22 04:00N 21°12' W 020°54'0 0.0 060 / 191021.2 19.0 20.9
2019-Jan-22 03:00N 21°12' W 020°54'0 0.0 060 / 191021.8 19.2 20.9
2019-Jan-22 02:00N 21°12' W 020°54'0 0.0 070 / 171022.3 19.0 20.9
2019-Jan-22 01:00N 21°12' W 020°54'0 0.0 070 / 211022.6 19.0 20.9
2019-Jan-22 00:00N 21°12' W 020°54'0 0.0 070 / 211022.8 18.9 20.9
2019-Jan-21 23:00N 21°12' W 020°54'0 0.0 070 / 191022.8 18.9 20.9
2019-Jan-21 22:00N 21°12' W 020°54'0 0.0 060 / 211022.6 19.0 20.9
2019-Jan-21 21:00N 21°12' W 020°54'0 0.0 050 / 191022.2 19.2 20.9
2019-Jan-21 20:00N 21°12' W 020°54'0 0.0 050 / 201021.8 19.4 20.9
2019-Jan-21 19:00N 21°12' W 020°54'0 0.0 060 / 181021.2 19.4 21.0
2019-Jan-21 18:00N 21°12' W 020°54'0 0.0 060 / 181021.2 19.4 21.0
2019-Jan-21 17:00N 21°12' W 020°54'0 0.0 060 / 181021.2 19.5 21.0
2019-Jan-21 16:00N 21°12' W 020°54'0 0.0 060 / 181021.4 19.4 21.0
2019-Jan-21 15:00N 21°12' W 020°54'0 0.0 060 / 181022.0 19.5 21.0
2019-Jan-21 14:00N 21°12' W 020°54'0 0.0 070 / 191022.6 19.4 21.0
2019-Jan-21 13:00N 21°12' W 020°54'0 0.0 070 / 181023.6 19.4 20.9
2019-Jan-21 12:00N 21°12' W 020°54'0 0.0 070 / 191024.3 19.2 20.9
2019-Jan-21 11:00N 21°12' W 020°54'0 0.0 060 / 191024.6 19.4 20.9
2019-Jan-21 10:00N 21°12' W 020°54'0 0.0 060 / 201024.2 19.0 20.9
2019-Jan-21 09:00N 21°12' W 020°54'6 5.6 060 / 211023.6 18.9 20.8
2019-Jan-21 08:00N 21°12' W 020°48'8 8.2 060 / 221023.0 18.9 20.8
2019-Jan-21 07:00N 21°18' W 020°42'6 5.6 050 / 221022.8 18.9 20.8
2019-Jan-21 06:00N 21°18' W 020°36'0 0.0 050 / 221022.6 18.9 20.8
2019-Jan-21 05:00N 21°18' W 020°36'6 6.0 050 / 251022.8 18.9 20.8
2019-Jan-21 04:00N 21°12' W 020°36'6 5.6 050 / 251022.8 18.9 20.8
2019-Jan-21 03:00N 21°12' W 020°42'0 0.0 050 / 241023.1 18.9 20.8
2019-Jan-21 02:00N 21°12' W 020°42'0 0.0 060 / 241023.3 18.7 20.9
2019-Jan-21 01:00N 21°12' W 020°42'6 5.6 060 / 241023.7 18.7 20.9
2019-Jan-21 00:00N 21°12' W 020°48'0 0.0 060 / 241024.0 18.7 20.9
2019-Jan-20 23:00N 21°12' W 020°48'0 0.0 060 / 231024.0 18.7 20.9
2019-Jan-20 22:00N 21°12' W 020°48'0 0.0 060 / 241023.6 18.7 20.9
2019-Jan-20 21:00N 21°12' W 020°48'6 5.6 050 / 241023.3 18.7 20.8
2019-Jan-20 20:00N 21°12' W 020°54'0 0.0 060 / 221022.8 18.7 20.9
2019-Jan-20 19:00N 21°12' W 020°54'0 0.0 060 / 241022.3 18.7 20.9
2019-Jan-20 18:00N 21°12' W 020°54'0 0.0 060 / 241022.3 18.9 20.9
2019-Jan-20 17:00N 21°12' W 020°54'8 8.2 060 / 241022.3 19.2 20.9
2019-Jan-20 16:00N 21°18' W 020°48'8 8.2 070 / 251022.4 19.2 20.9
2019-Jan-20 15:00N 21°24' W 020°42'1313.2 060 / 261022.6 19.0 20.9
2019-Jan-20 14:00N 21°36' W 020°36'8 8.2 060 / 241023.5 19.0 20.7
2019-Jan-20 13:00N 21°42' W 020°30'8 8.2 070 / 241024.8 19.0 20.7
2019-Jan-20 12:00N 21°48' W 020°24'8 8.2 070 / 241025.1 18.9 19.2
2019-Jan-20 11:00N 21°54' W 020°18'1312.6 070 / 251025.4 18.9 19.2
2019-Jan-20 10:00N 22°00' W 020°06'1313.2 080 / 261024.8 19.2 19.8
2019-Jan-20 09:00N 22°12' W 020°00'8 8.2 060 / 241024.6 19.0 21.0
2019-Jan-20 08:00N 22°18' W 019°54'8 8.2 060 / 251024.2 19.0 21.1
2019-Jan-20 07:00N 22°24' W 019°48'8 8.2 060 / 261023.8 18.9 21.3
2019-Jan-20 06:00N 22°30' W 019°42'8 8.2 060 / 241023.7 18.9 21.0
2019-Jan-20 05:00N 22°36' W 019°36'1313.2 060 / 221023.9 18.7 20.8
2019-Jan-20 04:00N 22°48' W 019°30'8 8.2 060 / 241023.8 18.7 20.8
2019-Jan-20 03:00N 22°54' W 019°24'8 8.2 060 / 241024.0 18.7 20.6
2019-Jan-20 02:00N 23°00' W 019°18'8 8.2 060 / 231024.9 18.7 20.3
2019-Jan-20 01:00N 23°06' W 019°12'8 8.2 060 / 251025.0 18.9 20.7
2019-Jan-20 00:00N 23°12' W 019°06'8 8.1 060 / 241025.2 18.9 20.8
2019-Jan-19 23:00N 23°18' W 019°00'1313.2 060 / 241025.6 19.0 20.9
2019-Jan-19 22:00N 23°30' W 018°54'8 8.1 050 / 221025.0 18.9 20.8
2019-Jan-19 21:00N 23°36' W 018°48'8 8.1 060 / 231024.8 18.7 19.6
2019-Jan-19 20:00N 23°42' W 018°42'8 8.1 050 / 181024.7 18.9 18.7
2019-Jan-19 19:00N 23°48' W 018°36'8 8.1 060 / 231024.2 18.9 19.6
2019-Jan-19 18:00N 23°54' W 018°30'1616.3 060 / 201024.0 18.7 19.8
2019-Jan-19 17:00N 24°06' W 018°18'8 8.1 060 / 211024.2 18.7 20.0
2019-Jan-19 16:00N 24°12' W 018°12'8 8.1 060 / 211023.9 18.7 20.1
2019-Jan-19 15:00N 24°18' W 018°06'8 8.1 060 / 221024.3 19.0 20.0
2019-Jan-19 14:00N 24°24' W 018°00'1313.2 070 / 221024.6 19.2 19.9
2019-Jan-19 13:00N 24°36' W 017°54'8 8.1 070 / 251025.7 18.4 20.0
2019-Jan-19 12:00N 24°42' W 017°48'8 8.1 060 / 151026.8 18.7 20.1
2019-Jan-19 11:00N 24°48' W 017°42'8 8.1 050 / 181026.9 18.5 19.8
2019-Jan-19 10:00N 24°54' W 017°36'1313.2 050 / 231026.7 17.9 19.9
2019-Jan-19 09:00N 25°06' W 017°30'8 8.1 080 / 171025.9 17.7 19.6
2019-Jan-19 08:00N 25°12' W 017°24'8 8.1 060 / 171025.6 18.2 18.7
2019-Jan-19 07:00N 25°18' W 017°18'1313.2 050 / 211024.9 18.2 19.4
2019-Jan-19 06:00N 25°30' W 017°12'8 8.1 070 / 221024.4 18.2 19.4
2019-Jan-19 05:00N 25°36' W 017°06'1212.4 050 / 191024.6 18.2 19.1
2019-Jan-19 04:00N 25°42' W 016°54'1313.2 060 / 231024.5 18.2 19.7
2019-Jan-19 03:00N 25°54' W 016°48'8 8.1 060 / 211024.8 18.2 19.7
2019-Jan-19 02:00N 26°00' W 016°42'8 8.1 060 / 221025.1 18.4 19.6
2019-Jan-19 01:00N 26°06' W 016°36'1313.2 060 / 171025.3 18.4 19.8
2019-Jan-19 00:00N 26°18' W 016°30'8 8.1 040 / 151025.6 18.4 19.8
2019-Jan-18 23:00N 26°24' W 016°24'8 8.1 030 / 171025.3 19.9 19.9
2019-Jan-18 22:00N 26°30' W 016°18'8 8.1 020 / 181025.0 18.4 19.8
2019-Jan-18 21:00N 26°36' W 016°12'1313.1 040 / 161024.7 19.4 19.9
2019-Jan-18 20:00N 26°48' W 016°06'8 8.0 050 / 211024.2 18.4 19.9
2019-Jan-18 19:00N 26°54' W 016°00'8 8.0 050 / 221023.6 18.2 19.8
2019-Jan-18 18:00N 27°00' W 015°54'1313.1 050 / 211023.2 18.2 19.5
2019-Jan-18 17:00N 27°12' W 015°48'8 8.0 050 / 231023.0 18.5 19.7
2019-Jan-18 16:00N 27°18' W 015°42'8 8.0 040 / 231022.6 18.9 19.5
2019-Jan-18 15:00N 27°24' W 015°36'1313.1 040 / 241022.2 18.7 19.0
2019-Jan-18 14:00N 27°36' W 015°30'8 8.0 030 / 251022.6 18.5 18.9
2019-Jan-18 13:00N 27°42' W 015°24'1313.1 010 / 241023.5 18.2 19.0
2019-Jan-18 12:00N 27°54' W 015°18'6 6.0 360 / 241024.0 18.9 19.6
2019-Jan-18 11:00N 28°00' W 015°18'8 8.0 020 / 231024.0 18.2 19.4
2019-Jan-18 10:00N 28°06' W 015°24'6 6.0 350 / 131023.8 18.2 19.2
2019-Jan-18 09:00N 28°12' W 015°24'0 0.0 010 / 81023.3 17.9 19.4
2019-Jan-18 08:00N 28°12' W 015°24'0 0.0 010 / 71022.7 17.4 19.3
2019-Jan-18 07:00N 28°12' W 015°24'0 0.0 010 / 81022.0 17.2 19.4
2019-Jan-18 06:00N 28°12' W 015°24'0 0.0 010 / 91021.8 17.0 19.4
2019-Jan-18 05:00N 28°12' W 015°24'0 0.0 010 / 91021.7 16.5 19.4
2019-Jan-18 04:00N 28°12' W 015°24'0 0.0 010 / 111022.2 15.9 19.4
2019-Jan-18 03:00N 28°12' W 015°24'0 0.0 010 / 71021.9 17.0 19.4
2019-Jan-18 02:00N 28°12' W 015°24'0 0.0 010 / 101021.9 16.9 19.4
2019-Jan-18 01:00N 28°12' W 015°24'0 0.0 010 / 131022.1 15.2 19.4
2019-Jan-18 00:00N 28°12' W 015°24'0 0.0 010 / 111022.2 17.2 19.4
2019-Jan-17 23:00N 28°12' W 015°24'0 0.0 010 / 101022.0 16.9 19.4
2019-Jan-17 22:00N 28°12' W 015°24'0 0.0 010 / 121021.7 16.9 19.4
2019-Jan-17 21:00N 28°12' W 015°24'0 0.0 010 / 81021.3 15.9 19.4
2019-Jan-17 20:00N 28°12' W 015°24'0 0.0 020 / 71020.9 17.2 19.4
2019-Jan-17 19:00N 28°12' W 015°24'0 0.0 020 / 81020.6 17.2 19.4
2019-Jan-17 18:00N 28°12' W 015°24'0 0.0 010 / 101020.4 17.5 19.4
2019-Jan-17 17:00N 28°12' W 015°24'0 0.0 060 / 31020.3 17.7 19.4
2019-Jan-17 16:00N 28°12' W 015°24'0 0.0 050 / 41020.2 17.4 19.5
2019-Jan-17 15:00N 28°12' W 015°24'0 0.0 020 / 71020.2 19.2 19.5
2019-Jan-17 14:00N 28°12' W 015°24'0 0.0 010 / 71020.8 18.7 19.5
2019-Jan-17 13:00N 28°12' W 015°24'0 0.0 010 / 81021.9 18.4 19.4
2019-Jan-17 12:00N 28°12' W 015°24'0 0.0 010 / 121022.9 18.2 19.4
2019-Jan-17 11:00N 28°12' W 015°24'0 0.0 010 / 61023.3 16.9 19.4
2019-Jan-17 10:00N 28°12' W 015°24'0 0.0 010 / 101022.6 17.7 19.4
2019-Jan-17 09:00N 28°12' W 015°24'0 0.0 010 / 91022.0 17.4 19.3
2019-Jan-17 08:00N 28°12' W 015°24'0 0.0 010 / 101021.9 17.0 19.4
2019-Jan-17 07:00N 28°12' W 015°24'0 0.0 010 / 91021.6 16.9 19.4
2019-Jan-17 06:00N 28°12' W 015°24'0 0.0 010 / 81021.1 17.4 19.4
2019-Jan-17 05:00N 28°12' W 015°24'0 0.0 010 / 71021.1 17.2 19.4
2019-Jan-17 04:00N 28°12' W 015°24'0 0.0 1021.4 16.7 19.4
2019-Jan-17 03:00N 28°12' W 015°24'0 0.0 020 / 31021.6 16.7 19.4
2019-Jan-17 02:00N 28°12' W 015°24'0 0.0 020 / 21021.8 17.0 19.4
2019-Jan-17 01:00N 28°12' W 015°24'0 0.0 020 / 41022.3 16.7 19.4
2019-Jan-17 00:00N 28°12' W 015°24'0 0.0 010 / 21022.8 17.7 19.5
2019-Jan-16 23:00N 28°12' W 015°24'0 0.0 1023.0 17.2 19.4
2019-Jan-16 22:00N 28°12' W 015°24'0 0.0 010 / 41023.0 17.4 19.4
2019-Jan-16 21:00N 28°12' W 015°24'0 0.0 010 / 71022.5 17.9 19.4
2019-Jan-16 20:00N 28°12' W 015°24'0 0.0 010 / 71022.3 18.2 19.5
2019-Jan-16 19:00N 28°12' W 015°24'0 0.0 010 / 81022.1 18.2 19.5
2019-Jan-16 18:00N 28°12' W 015°24'0 0.0 010 / 81021.8 18.2 19.5
2019-Jan-16 17:00N 28°12' W 015°24'0 0.0 030 / 41021.6 19.0 19.5
2019-Jan-16 16:00N 28°12' W 015°24'0 0.0 020 / 41021.7 19.0 19.5
2019-Jan-16 15:00N 28°12' W 015°24'0 0.0 020 / 51021.7 19.2 19.4
2019-Jan-16 14:00N 28°12' W 015°24'0 0.0 010 / 81022.3 18.2 19.4
2019-Jan-16 13:00N 28°12' W 015°24'0 0.0 010 / 41023.1 18.7 19.4
2019-Jan-16 12:00N 28°12' W 015°24'0 0.0 020 / 31024.0 19.0 19.4
2019-Jan-16 11:00N 28°12' W 015°24'0 0.0 010 / 31024.7 19.2 19.4
2019-Jan-16 10:00N 28°12' W 015°24'0 0.0 020 / 31024.1 18.4 19.4
2019-Jan-16 09:00N 28°12' W 015°24'0 0.0 010 / 41023.5 18.4 19.4
2019-Jan-16 08:00N 28°12' W 015°24'0 0.0 1023.0 17.2 19.4
2019-Jan-16 07:00N 28°12' W 015°24'0 0.0 010 / 61022.5 17.0 19.4
2019-Jan-16 06:00N 28°12' W 015°24'0 0.0 010 / 51022.3 17.2 19.4
2019-Jan-16 05:00N 28°12' W 015°24'0 0.0 020 / 51022.5 17.4 19.4
2019-Jan-16 04:00N 28°12' W 015°24'0 0.0 010 / 31022.9 17.2 19.4
2019-Jan-16 03:00N 28°12' W 015°24'0 0.0 020 / 31022.9 17.2 19.4
2019-Jan-16 02:00N 28°12' W 015°24'0 0.0 010 / 41023.1 17.2 19.4
2019-Jan-16 01:00N 28°12' W 015°24'0 0.0 030 / 31023.4 17.4 19.4
2019-Jan-16 00:00N 28°12' W 015°24'0 0.0 020 / 41023.9 17.4 19.4
2019-Jan-15 23:00N 28°12' W 015°24'0 0.0 030 / 51023.9 17.5 19.5
2019-Jan-15 22:00N 28°12' W 015°24'0 0.0 030 / 51023.4 17.7 19.6
2019-Jan-15 21:00N 28°12' W 015°24'0 0.0 040 / 31022.8 17.9 19.5
2019-Jan-15 20:00N 28°12' W 015°24'0 0.0 040 / 31022.4 17.9 19.6
2019-Jan-15 19:00N 28°12' W 015°24'0 0.0 050 / 41021.8 18.0 19.7
2019-Jan-15 18:00N 28°12' W 015°24'0 0.0 060 / 51021.4 18.4 19.5
2019-Jan-15 17:00N 28°12' W 015°24'0 0.0 070 / 61021.4 19.5 19.6
2019-Jan-15 16:00N 28°12' W 015°24'0 0.0 070 / 61021.0 19.4 19.6
2019-Jan-15 15:00N 28°12' W 015°24'0 0.0 070 / 51020.9 19.5 19.6
2019-Jan-15 14:00N 28°12' W 015°24'0 0.0 080 / 41021.1 19.7 19.6
2019-Jan-15 13:00N 28°12' W 015°24'0 0.0 140 / 51021.6 18.9 19.6
2019-Jan-15 12:00N 28°12' W 015°24'0 0.0 080 / 41022.7 19.5 19.5
2019-Jan-15 11:00N 28°12' W 015°24'0 0.0 150 / 41022.9 19.2 19.5
2019-Jan-15 10:00N 28°12' W 015°24'0 0.0 160 / 21022.5 20.0 19.5
2019-Jan-15 09:00N 28°12' W 015°24'0 0.0 1021.8 18.9 19.5
2019-Jan-15 08:00N 28°12' W 015°24'0 0.0 1021.3 16.0 19.5
2019-Jan-15 07:00N 28°12' W 015°24'0 0.0 200 / 21020.8 16.0 19.5
2019-Jan-15 06:00N 28°12' W 015°24'0 0.0 1020.2 15.9 19.5
2019-Jan-15 05:00N 28°12' W 015°24'0 0.0 1020.2 15.9 19.5
2019-Jan-15 04:00N 28°12' W 015°24'0 0.0 240 / 11020.5 16.2 19.5
2019-Jan-15 03:00N 28°12' W 015°24'0 0.0 220 / 21020.6 16.5 19.5
2019-Jan-15 02:00N 28°12' W 015°24'0 0.0 170 / 11020.6 17.0 19.5
2019-Jan-15 01:00N 28°12' W 015°24'0 0.0 200 / 21020.6 17.2 19.5
2019-Jan-15 00:00N 28°12' W 015°24'0 0.0 150 / 21021.0 18.0 19.5
2019-Jan-14 23:00N 28°12' W 015°24'0 0.0 150 / 31021.1 17.5 19.5
2019-Jan-14 22:00N 28°12' W 015°24'0 0.0 170 / 41021.1 17.5 19.5
2019-Jan-14 21:00N 28°12' W 015°24'0 0.0 140 / 61020.6 17.7 19.6
2019-Jan-14 20:00N 28°12' W 015°24'0 0.0 140 / 91020.4 17.9 19.6
2019-Jan-14 19:00N 28°12' W 015°24'0 0.0 130 / 71020.3 17.9 19.6
2019-Jan-14 18:00N 28°12' W 015°24'0 0.0 140 / 71019.9 18.2 19.7
2019-Jan-14 17:00N 28°12' W 015°24'0 0.0 140 / 101019.5 18.7 19.7
2019-Jan-14 16:00N 28°12' W 015°24'0 0.0 140 / 101019.5 18.9 19.8
2019-Jan-14 15:00N 28°12' W 015°24'0 0.0 150 / 111019.4 19.2 19.8
2019-Jan-14 14:00N 28°12' W 015°24'0 0.0 140 / 141019.9 18.7 19.7
2019-Jan-14 13:00N 28°12' W 015°24'0 0.0 140 / 131020.9 19.2 19.5
2019-Jan-14 12:00N 28°12' W 015°24'6 6.0 150 / 131021.8 19.7 19.5
2019-Jan-14 11:00N 28°06' W 015°24'5 5.3 160 / 211022.3 19.4 19.4
2019-Jan-14 10:00N 28°06' W 015°18'5 5.3 150 / 211022.1 19.2 19.5
2019-Jan-14 09:00N 28°06' W 015°24'8 8.0 160 / 201021.8 19.5 19.5
2019-Jan-14 08:00N 28°12' W 015°18'6 6.0 150 / 181021.3 19.2 19.5
2019-Jan-14 07:00N 28°18' W 015°18'6 6.0 140 / 261020.6 19.4 19.4
2019-Jan-14 06:00N 28°24' W 015°18'8 8.0 130 / 231020.3 19.2 19.5
2019-Jan-14 05:00N 28°30' W 015°12'   110 / 221020.2 19.4 19.5
Track history (hours):
 
Tides and Currents Weather Stations Pressure Air Temp Water Temp Dewpoint Dewpoint Depression Visibility Wind Speed Wind Dir Waves Ship Positions

Oceanographic research ship Poseidon (Germany)

Detailed information on ship capabilities available from University of Delaware's Ocean Information Center.

Last reported at 2019-Jan-24 05:00 UTC. Time now 2019-Jan-24 06:11 UTC.
Position N 20°48' W 017°12'.

Length 60 m; beam 11.4 m; draft 4.1 m.

Type: Ship. MMSI: 211204360.

Wind from 050 at 19 knots

Barometer 1016.1 mb
Air temperature 16.0 ° C
Water temperature 16.8 ° C

Date/timePositionNaut miles runAvg speedWind from/ knotsBaromVisibWave heightAir tempDewpointWater temp
2019-Jan-24 05:00N 20°48' W 017°12'0 0.0 050 / 191016.1 16.0 16.8
2019-Jan-24 04:00N 20°48' W 017°12'0 0.0 040 / 171016.0 15.9 16.8
2019-Jan-24 03:00N 20°48' W 017°12'0 0.0 030 / 191016.1 16.0 17.1
2019-Jan-24 02:00N 20°48' W 017°12'0 0.0 020 / 141016.5 16.7 16.9
2019-Jan-24 01:00N 20°48' W 017°12'0 0.0 1017.0 16.9 16.9
2019-Jan-24 00:00N 20°48' W 017°12'0 0.0 360 / 141017.2 16.9 16.7
2019-Jan-23 23:00N 20°48' W 017°12'0 0.0 1017.5 17.0 16.7
2019-Jan-23 22:00N 20°48' W 017°12'0 0.0 010 / 151017.4 17.0 16.8
2019-Jan-23 21:00N 20°48' W 017°12'0 0.0 010 / 161017.2 16.9 16.9
2019-Jan-23 20:00N 20°48' W 017°12'0 0.0 360 / 151016.8 16.9 16.9
2019-Jan-23 19:00N 20°48' W 017°12'0 0.0 360 / 161016.7 16.9 17.1
2019-Jan-23 18:00N 20°48' W 017°12'0 0.0 350 / 141016.9 17.0 17.1
2019-Jan-23 17:00N 20°48' W 017°12'0 0.0 340 / 141016.9 17.4 17.2
2019-Jan-23 16:00N 20°48' W 017°12'6 5.6 340 / 131017.2 17.2 17.1
2019-Jan-23 15:00N 20°48' W 017°18'17 8.4 350 / 141017.8 16.5 16.8
2019-Jan-23 13:00N 20°48' W 017°36'6 5.6 040 / 141019.9 15.9 17.9
2019-Jan-23 12:00N 20°48' W 017°42'1111.2 040 / 201020.5 16.2 18.4
2019-Jan-23 11:00N 20°48' W 017°54'8 8.2 040 / 221021.2 16.7 18.1
2019-Jan-23 10:00N 20°54' W 018°00'6 5.6 050 / 241020.8 16.9 18.2
2019-Jan-23 09:00N 20°54' W 018°06'1111.2 040 / 271020.2 17.2 18.2
2019-Jan-23 08:00N 20°54' W 018°18'6 5.6 040 / 271019.8 17.2 18.0
2019-Jan-23 07:00N 20°54' W 018°24'6 5.6 040 / 281019.3 17.2 17.6
2019-Jan-23 06:00N 20°54' W 018°30'6 5.6 040 / 271019.5 17.4 18.4
2019-Jan-23 05:00N 20°54' W 018°36'1111.2 040 / 271019.6 17.9 18.4
2019-Jan-23 04:00N 20°54' W 018°48'6 5.6 040 / 261019.4 17.9 18.4
2019-Jan-23 03:00N 20°54' W 018°54'6 5.6 040 / 261019.7 17.9 18.2
2019-Jan-23 02:00N 20°54' W 019°00'8 8.2 040 / 261020.1 17.9 18.6
2019-Jan-23 01:00N 21°00' W 019°06'1111.2 030 / 251020.2 17.7 19.0
2019-Jan-23 00:00N 21°00' W 019°18'6 5.6 040 / 261020.5 17.7 19.4
2019-Jan-22 23:00N 21°00' W 019°24'6 5.6 040 / 291020.1 17.9 19.2
2019-Jan-22 22:00N 21°00' W 019°30'6 5.6 030 / 311019.5 17.7 19.3
2019-Jan-22 21:00N 21°00' W 019°36'1111.2 040 / 311019.6 17.9 20.2
2019-Jan-22 20:00N 21°00' W 019°48'6 5.6 050 / 281020.5 17.7 20.2
2019-Jan-22 19:00N 21°00' W 019°54'6 5.6 060 / 241020.2 17.9 20.3
2019-Jan-22 18:00N 21°00' W 020°00'6 5.6 080 / 211020.3 17.7 20.3
2019-Jan-22 17:00N 21°00' W 020°06'8 8.2 1019.9 17.9 20.4
2019-Jan-22 16:00N 21°06' W 020°12'6 5.6 080 / 221020.1 18.2 20.7
2019-Jan-22 15:00N 21°06' W 020°18'17 8.4 080 / 231020.7 18.2 20.7
2019-Jan-22 13:00N 21°06' W 020°36'6 5.6 080 / 231022.3 18.7 20.6
2019-Jan-22 12:00N 21°06' W 020°42'6 5.6 080 / 241022.8 19.0 20.7
2019-Jan-22 11:00N 21°06' W 020°48'6 5.6 070 / 281022.8 19.2 20.7
2019-Jan-22 10:00N 21°06' W 020°54'0 0.0 070 / 261022.6 19.2 20.8
2019-Jan-22 09:00N 21°06' W 020°54'6 6.0 080 / 231022.2 19.0 20.8
2019-Jan-22 08:00N 21°12' W 020°54'0 0.0 080 / 201021.8 19.0 20.9
2019-Jan-22 07:00N 21°12' W 020°54'0 0.0 080 / 181021.3 19.2 20.9
2019-Jan-22 06:00N 21°12' W 020°54'0 0.0 070 / 201020.9 19.5 20.9
2019-Jan-22 05:00N 21°12' W 020°54'0 0.0 060 / 191021.0 19.0 20.9
2019-Jan-22 04:00N 21°12' W 020°54'0 0.0 060 / 191021.2 19.0 20.9
2019-Jan-22 03:00N 21°12' W 020°54'0 0.0 060 / 191021.8 19.2 20.9
2019-Jan-22 02:00N 21°12' W 020°54'0 0.0 070 / 171022.3 19.0 20.9
2019-Jan-22 01:00N 21°12' W 020°54'0 0.0 070 / 211022.6 19.0 20.9
2019-Jan-22 00:00N 21°12' W 020°54'0 0.0 070 / 211022.8 18.9 20.9
2019-Jan-21 23:00N 21°12' W 020°54'0 0.0 070 / 191022.8 18.9 20.9
2019-Jan-21 22:00N 21°12' W 020°54'0 0.0 060 / 211022.6 19.0 20.9
2019-Jan-21 21:00N 21°12' W 020°54'0 0.0 050 / 191022.2 19.2 20.9
2019-Jan-21 20:00N 21°12' W 020°54'0 0.0 050 / 201021.8 19.4 20.9
2019-Jan-21 19:00N 21°12' W 020°54'0 0.0 060 / 181021.2 19.4 21.0
2019-Jan-21 18:00N 21°12' W 020°54'0 0.0 060 / 181021.2 19.4 21.0
2019-Jan-21 17:00N 21°12' W 020°54'0 0.0 060 / 181021.2 19.5 21.0
2019-Jan-21 16:00N 21°12' W 020°54'0 0.0 060 / 181021.4 19.4 21.0
2019-Jan-21 15:00N 21°12' W 020°54'0 0.0 060 / 181022.0 19.5 21.0
2019-Jan-21 14:00N 21°12' W 020°54'0 0.0 070 / 191022.6 19.4 21.0
2019-Jan-21 13:00N 21°12' W 020°54'0 0.0 070 / 181023.6 19.4 20.9
2019-Jan-21 12:00N 21°12' W 020°54'0 0.0 070 / 191024.3 19.2 20.9
2019-Jan-21 11:00N 21°12' W 020°54'0 0.0 060 / 191024.6 19.4 20.9
2019-Jan-21 10:00N 21°12' W 020°54'0 0.0 060 / 201024.2 19.0 20.9
2019-Jan-21 09:00N 21°12' W 020°54'6 5.6 060 / 211023.6 18.9 20.8
2019-Jan-21 08:00N 21°12' W 020°48'8 8.2 060 / 221023.0 18.9 20.8
2019-Jan-21 07:00N 21°18' W 020°42'6 5.6 050 / 221022.8 18.9 20.8
2019-Jan-21 06:00N 21°18' W 020°36'0 0.0 050 / 221022.6 18.9 20.8
2019-Jan-21 05:00N 21°18' W 020°36'6 6.0 050 / 251022.8 18.9 20.8
2019-Jan-21 04:00N 21°12' W 020°36'6 5.6 050 / 251022.8 18.9 20.8
2019-Jan-21 03:00N 21°12' W 020°42'0 0.0 050 / 241023.1 18.9 20.8
2019-Jan-21 02:00N 21°12' W 020°42'0 0.0 060 / 241023.3 18.7 20.9
2019-Jan-21 01:00N 21°12' W 020°42'6 5.6 060 / 241023.7 18.7 20.9
2019-Jan-21 00:00N 21°12' W 020°48'0 0.0 060 / 241024.0 18.7 20.9
2019-Jan-20 23:00N 21°12' W 020°48'0 0.0 060 / 231024.0 18.7 20.9
2019-Jan-20 22:00N 21°12' W 020°48'0 0.0 060 / 241023.6 18.7 20.9
2019-Jan-20 21:00N 21°12' W 020°48'6 5.6 050 / 241023.3 18.7 20.8
2019-Jan-20 20:00N 21°12' W 020°54'0 0.0 060 / 221022.8 18.7 20.9
2019-Jan-20 19:00N 21°12' W 020°54'0 0.0 060 / 241022.3 18.7 20.9
2019-Jan-20 18:00N 21°12' W 020°54'0 0.0 060 / 241022.3 18.9 20.9
2019-Jan-20 17:00N 21°12' W 020°54'8 8.2 060 / 241022.3 19.2 20.9
2019-Jan-20 16:00N 21°18' W 020°48'8 8.2 070 / 251022.4 19.2 20.9
2019-Jan-20 15:00N 21°24' W 020°42'1313.2 060 / 261022.6 19.0 20.9
2019-Jan-20 14:00N 21°36' W 020°36'8 8.2 060 / 241023.5 19.0 20.7
2019-Jan-20 13:00N 21°42' W 020°30'8 8.2 070 / 241024.8 19.0 20.7
2019-Jan-20 12:00N 21°48' W 020°24'8 8.2 070 / 241025.1 18.9 19.2
2019-Jan-20 11:00N 21°54' W 020°18'1312.6 070 / 251025.4 18.9 19.2
2019-Jan-20 10:00N 22°00' W 020°06'1313.2 080 / 261024.8 19.2 19.8
2019-Jan-20 09:00N 22°12' W 020°00'8 8.2 060 / 241024.6 19.0 21.0
2019-Jan-20 08:00N 22°18' W 019°54'8 8.2 060 / 251024.2 19.0 21.1
2019-Jan-20 07:00N 22°24' W 019°48'8 8.2 060 / 261023.8 18.9 21.3
2019-Jan-20 06:00N 22°30' W 019°42'8 8.2 060 / 241023.7 18.9 21.0
2019-Jan-20 05:00N 22°36' W 019°36'1313.2 060 / 221023.9 18.7 20.8
2019-Jan-20 04:00N 22°48' W 019°30'8 8.2 060 / 241023.8 18.7 20.8
2019-Jan-20 03:00N 22°54' W 019°24'8 8.2 060 / 241024.0 18.7 20.6
2019-Jan-20 02:00N 23°00' W 019°18'8 8.2 060 / 231024.9 18.7 20.3
2019-Jan-20 01:00N 23°06' W 019°12'8 8.2 060 / 251025.0 18.9 20.7
2019-Jan-20 00:00N 23°12' W 019°06'8 8.1 060 / 241025.2 18.9 20.8
2019-Jan-19 23:00N 23°18' W 019°00'1313.2 060 / 241025.6 19.0 20.9
2019-Jan-19 22:00N 23°30' W 018°54'8 8.1 050 / 221025.0 18.9 20.8
2019-Jan-19 21:00N 23°36' W 018°48'8 8.1 060 / 231024.8 18.7 19.6
2019-Jan-19 20:00N 23°42' W 018°42'8 8.1 050 / 181024.7 18.9 18.7
2019-Jan-19 19:00N 23°48' W 018°36'8 8.1 060 / 231024.2 18.9 19.6
2019-Jan-19 18:00N 23°54' W 018°30'1616.3 060 / 201024.0 18.7 19.8
2019-Jan-19 17:00N 24°06' W 018°18'8 8.1 060 / 211024.2 18.7 20.0
2019-Jan-19 16:00N 24°12' W 018°12'8 8.1 060 / 211023.9 18.7 20.1
2019-Jan-19 15:00N 24°18' W 018°06'8 8.1 060 / 221024.3 19.0 20.0
2019-Jan-19 14:00N 24°24' W 018°00'1313.2 070 / 221024.6 19.2 19.9
2019-Jan-19 13:00N 24°36' W 017°54'8 8.1 070 / 251025.7 18.4 20.0
2019-Jan-19 12:00N 24°42' W 017°48'8 8.1 060 / 151026.8 18.7 20.1
2019-Jan-19 11:00N 24°48' W 017°42'8 8.1 050 / 181026.9 18.5 19.8
2019-Jan-19 10:00N 24°54' W 017°36'1313.2 050 / 231026.7 17.9 19.9
2019-Jan-19 09:00N 25°06' W 017°30'8 8.1 080 / 171025.9 17.7 19.6
2019-Jan-19 08:00N 25°12' W 017°24'8 8.1 060 / 171025.6 18.2 18.7
2019-Jan-19 07:00N 25°18' W 017°18'1313.2 050 / 211024.9 18.2 19.4
2019-Jan-19 06:00N 25°30' W 017°12'8 8.1 070 / 221024.4 18.2 19.4
2019-Jan-19 05:00N 25°36' W 017°06'1212.4 050 / 191024.6 18.2 19.1
2019-Jan-19 04:00N 25°42' W 016°54'1313.2 060 / 231024.5 18.2 19.7
2019-Jan-19 03:00N 25°54' W 016°48'8 8.1 060 / 211024.8 18.2 19.7
2019-Jan-19 02:00N 26°00' W 016°42'8 8.1 060 / 221025.1 18.4 19.6
2019-Jan-19 01:00N 26°06' W 016°36'1313.2 060 / 171025.3 18.4 19.8
2019-Jan-19 00:00N 26°18' W 016°30'8 8.1 040 / 151025.6 18.4 19.8
2019-Jan-18 23:00N 26°24' W 016°24'8 8.1 030 / 171025.3 19.9 19.9
2019-Jan-18 22:00N 26°30' W 016°18'8 8.1 020 / 181025.0 18.4 19.8
2019-Jan-18 21:00N 26°36' W 016°12'1313.1 040 / 161024.7 19.4 19.9
2019-Jan-18 20:00N 26°48' W 016°06'8 8.0 050 / 211024.2 18.4 19.9
2019-Jan-18 19:00N 26°54' W 016°00'8 8.0 050 / 221023.6 18.2 19.8
2019-Jan-18 18:00N 27°00' W 015°54'1313.1 050 / 211023.2 18.2 19.5
2019-Jan-18 17:00N 27°12' W 015°48'8 8.0 050 / 231023.0 18.5 19.7
2019-Jan-18 16:00N 27°18' W 015°42'8 8.0 040 / 231022.6 18.9 19.5
2019-Jan-18 15:00N 27°24' W 015°36'1313.1 040 / 241022.2 18.7 19.0
2019-Jan-18 14:00N 27°36' W 015°30'8 8.0 030 / 251022.6 18.5 18.9
2019-Jan-18 13:00N 27°42' W 015°24'1313.1 010 / 241023.5 18.2 19.0
2019-Jan-18 12:00N 27°54' W 015°18'6 6.0 360 / 241024.0 18.9 19.6
2019-Jan-18 11:00N 28°00' W 015°18'8 8.0 020 / 231024.0 18.2 19.4
2019-Jan-18 10:00N 28°06' W 015°24'6 6.0 350 / 131023.8 18.2 19.2
2019-Jan-18 09:00N 28°12' W 015°24'0 0.0 010 / 81023.3 17.9 19.4
2019-Jan-18 08:00N 28°12' W 015°24'0 0.0 010 / 71022.7 17.4 19.3
2019-Jan-18 07:00N 28°12' W 015°24'0 0.0 010 / 81022.0 17.2 19.4
2019-Jan-18 06:00N 28°12' W 015°24'0 0.0 010 / 91021.8 17.0 19.4
2019-Jan-18 05:00N 28°12' W 015°24'0 0.0 010 / 91021.7 16.5 19.4
2019-Jan-18 04:00N 28°12' W 015°24'0 0.0 010 / 111022.2 15.9 19.4
2019-Jan-18 03:00N 28°12' W 015°24'0 0.0 010 / 71021.9 17.0 19.4
2019-Jan-18 02:00N 28°12' W 015°24'0 0.0 010 / 101021.9 16.9 19.4
2019-Jan-18 01:00N 28°12' W 015°24'0 0.0 010 / 131022.1 15.2 19.4
2019-Jan-18 00:00N 28°12' W 015°24'0 0.0 010 / 111022.2 17.2 19.4
2019-Jan-17 23:00N 28°12' W 015°24'0 0.0 010 / 101022.0 16.9 19.4
2019-Jan-17 22:00N 28°12' W 015°24'0 0.0 010 / 121021.7 16.9 19.4
2019-Jan-17 21:00N 28°12' W 015°24'0 0.0 010 / 81021.3 15.9 19.4
2019-Jan-17 20:00N 28°12' W 015°24'0 0.0 020 / 71020.9 17.2 19.4
2019-Jan-17 19:00N 28°12' W 015°24'0 0.0 020 / 81020.6 17.2 19.4
2019-Jan-17 18:00N 28°12' W 015°24'0 0.0 010 / 101020.4 17.5 19.4
2019-Jan-17 17:00N 28°12' W 015°24'0 0.0 060 / 31020.3 17.7 19.4
2019-Jan-17 16:00N 28°12' W 015°24'0 0.0 050 / 41020.2 17.4 19.5
2019-Jan-17 15:00N 28°12' W 015°24'0 0.0 020 / 71020.2 19.2 19.5
2019-Jan-17 14:00N 28°12' W 015°24'0 0.0 010 / 71020.8 18.7 19.5
2019-Jan-17 13:00N 28°12' W 015°24'0 0.0 010 / 81021.9 18.4 19.4
2019-Jan-17 12:00N 28°12' W 015°24'0 0.0 010 / 121022.9 18.2 19.4
2019-Jan-17 11:00N 28°12' W 015°24'0 0.0 010 / 61023.3 16.9 19.4
2019-Jan-17 10:00N 28°12' W 015°24'0 0.0 010 / 101022.6 17.7 19.4
2019-Jan-17 09:00N 28°12' W 015°24'0 0.0 010 / 91022.0 17.4 19.3
2019-Jan-17 08:00N 28°12' W 015°24'0 0.0 010 / 101021.9 17.0 19.4
2019-Jan-17 07:00N 28°12' W 015°24'0 0.0 010 / 91021.6 16.9 19.4
2019-Jan-17 06:00N 28°12' W 015°24'0 0.0 010 / 81021.1 17.4 19.4
2019-Jan-17 05:00N 28°12' W 015°24'0 0.0 010 / 71021.1 17.2 19.4
2019-Jan-17 04:00N 28°12' W 015°24'0 0.0 1021.4 16.7 19.4
2019-Jan-17 03:00N 28°12' W 015°24'0 0.0 020 / 31021.6 16.7 19.4
2019-Jan-17 02:00N 28°12' W 015°24'0 0.0 020 / 21021.8 17.0 19.4
2019-Jan-17 01:00N 28°12' W 015°24'0 0.0 020 / 41022.3 16.7 19.4
2019-Jan-17 00:00N 28°12' W 015°24'0 0.0 010 / 21022.8 17.7 19.5
2019-Jan-16 23:00N 28°12' W 015°24'0 0.0 1023.0 17.2 19.4
2019-Jan-16 22:00N 28°12' W 015°24'0 0.0 010 / 41023.0 17.4 19.4
2019-Jan-16 21:00N 28°12' W 015°24'0 0.0 010 / 71022.5 17.9 19.4
2019-Jan-16 20:00N 28°12' W 015°24'0 0.0 010 / 71022.3 18.2 19.5
2019-Jan-16 19:00N 28°12' W 015°24'0 0.0 010 / 81022.1 18.2 19.5
2019-Jan-16 18:00N 28°12' W 015°24'0 0.0 010 / 81021.8 18.2 19.5
2019-Jan-16 17:00N 28°12' W 015°24'0 0.0 030 / 41021.6 19.0 19.5
2019-Jan-16 16:00N 28°12' W 015°24'0 0.0 020 / 41021.7 19.0 19.5
2019-Jan-16 15:00N 28°12' W 015°24'0 0.0 020 / 51021.7 19.2 19.4
2019-Jan-16 14:00N 28°12' W 015°24'0 0.0 010 / 81022.3 18.2 19.4
2019-Jan-16 13:00N 28°12' W 015°24'0 0.0 010 / 41023.1 18.7 19.4
2019-Jan-16 12:00N 28°12' W 015°24'0 0.0 020 / 31024.0 19.0 19.4
2019-Jan-16 11:00N 28°12' W 015°24'0 0.0 010 / 31024.7 19.2 19.4
2019-Jan-16 10:00N 28°12' W 015°24'0 0.0 020 / 31024.1 18.4 19.4
2019-Jan-16 09:00N 28°12' W 015°24'0 0.0 010 / 41023.5 18.4 19.4
2019-Jan-16 08:00N 28°12' W 015°24'0 0.0 1023.0 17.2 19.4
2019-Jan-16 07:00N 28°12' W 015°24'0 0.0 010 / 61022.5 17.0 19.4
2019-Jan-16 06:00N 28°12' W 015°24'0 0.0 010 / 51022.3 17.2 19.4
2019-Jan-16 05:00N 28°12' W 015°24'0 0.0 020 / 51022.5 17.4 19.4
2019-Jan-16 04:00N 28°12' W 015°24'0 0.0 010 / 31022.9 17.2 19.4
2019-Jan-16 03:00N 28°12' W 015°24'0 0.0 020 / 31022.9 17.2 19.4
2019-Jan-16 02:00N 28°12' W 015°24'0 0.0 010 / 41023.1 17.2 19.4
2019-Jan-16 01:00N 28°12' W 015°24'0 0.0 030 / 31023.4 17.4 19.4
2019-Jan-16 00:00N 28°12' W 015°24'0 0.0 020 / 41023.9 17.4 19.4
2019-Jan-15 23:00N 28°12' W 015°24'0 0.0 030 / 51023.9 17.5 19.5
2019-Jan-15 22:00N 28°12' W 015°24'0 0.0 030 / 51023.4 17.7 19.6
2019-Jan-15 21:00N 28°12' W 015°24'0 0.0 040 / 31022.8 17.9 19.5
2019-Jan-15 20:00N 28°12' W 015°24'0 0.0 040 / 31022.4 17.9 19.6
2019-Jan-15 19:00N 28°12' W 015°24'0 0.0 050 / 41021.8 18.0 19.7
2019-Jan-15 18:00N 28°12' W 015°24'0 0.0 060 / 51021.4 18.4 19.5
2019-Jan-15 17:00N 28°12' W 015°24'0 0.0 070 / 61021.4 19.5 19.6
2019-Jan-15 16:00N 28°12' W 015°24'0 0.0 070 / 61021.0 19.4 19.6
2019-Jan-15 15:00N 28°12' W 015°24'0 0.0 070 / 51020.9 19.5 19.6
2019-Jan-15 14:00N 28°12' W 015°24'0 0.0 080 / 41021.1 19.7 19.6
2019-Jan-15 13:00N 28°12' W 015°24'0 0.0 140 / 51021.6 18.9 19.6
2019-Jan-15 12:00N 28°12' W 015°24'0 0.0 080 / 41022.7 19.5 19.5
2019-Jan-15 11:00N 28°12' W 015°24'0 0.0 150 / 41022.9 19.2 19.5
2019-Jan-15 10:00N 28°12' W 015°24'0 0.0 160 / 21022.5 20.0 19.5
2019-Jan-15 09:00N 28°12' W 015°24'0 0.0 1021.8 18.9 19.5
2019-Jan-15 08:00N 28°12' W 015°24'0 0.0 1021.3 16.0 19.5
2019-Jan-15 07:00N 28°12' W 015°24'0 0.0 200 / 21020.8 16.0 19.5
2019-Jan-15 06:00N 28°12' W 015°24'0 0.0 1020.2 15.9 19.5
2019-Jan-15 05:00N 28°12' W 015°24'0 0.0 1020.2 15.9 19.5
2019-Jan-15 04:00N 28°12' W 015°24'0 0.0 240 / 11020.5 16.2 19.5
2019-Jan-15 03:00N 28°12' W 015°24'0 0.0 220 / 21020.6 16.5 19.5
2019-Jan-15 02:00N 28°12' W 015°24'0 0.0 170 / 11020.6 17.0 19.5
2019-Jan-15 01:00N 28°12' W 015°24'0 0.0 200 / 21020.6 17.2 19.5
2019-Jan-15 00:00N 28°12' W 015°24'0 0.0 150 / 21021.0 18.0 19.5
2019-Jan-14 23:00N 28°12' W 015°24'0 0.0 150 / 31021.1 17.5 19.5
2019-Jan-14 22:00N 28°12' W 015°24'0 0.0 170 / 41021.1 17.5 19.5
2019-Jan-14 21:00N 28°12' W 015°24'0 0.0 140 / 61020.6 17.7 19.6
2019-Jan-14 20:00N 28°12' W 015°24'0 0.0 140 / 91020.4 17.9 19.6
2019-Jan-14 19:00N 28°12' W 015°24'0 0.0 130 / 71020.3 17.9 19.6
2019-Jan-14 18:00N 28°12' W 015°24'0 0.0 140 / 71019.9 18.2 19.7
2019-Jan-14 17:00N 28°12' W 015°24'0 0.0 140 / 101019.5 18.7 19.7
2019-Jan-14 16:00N 28°12' W 015°24'0 0.0 140 / 101019.5 18.9 19.8
2019-Jan-14 15:00N 28°12' W 015°24'0 0.0 150 / 111019.4 19.2 19.8
2019-Jan-14 14:00N 28°12' W 015°24'0 0.0 140 / 141019.9 18.7 19.7
2019-Jan-14 13:00N 28°12' W 015°24'0 0.0 140 / 131020.9 19.2 19.5
2019-Jan-14 12:00N 28°12' W 015°24'6 6.0 150 / 131021.8 19.7 19.5
2019-Jan-14 11:00N 28°06' W 015°24'5 5.3 160 / 211022.3 19.4 19.4
2019-Jan-14 10:00N 28°06' W 015°18'5 5.3 150 / 211022.1 19.2 19.5
2019-Jan-14 09:00N 28°06' W 015°24'8 8.0 160 / 201021.8 19.5 19.5
2019-Jan-14 08:00N 28°12' W 015°18'6 6.0 150 / 181021.3 19.2 19.5
2019-Jan-14 07:00N 28°18' W 015°18'6 6.0 140 / 261020.6 19.4 19.4
2019-Jan-14 06:00N 28°24' W 015°18'8 8.0 130 / 231020.3 19.2 19.5
2019-Jan-14 05:00N 28°30' W 015°12'   110 / 221020.2 19.4 19.5

Dump ship's entire track history